Terminal Aerodrome Forecast
Issued by NWS

Home | Current Version | Previous Version | Graphics & Text | Print | Product List | Glossary On
Versions: 1 2 3 4 5 6 7 8 9 10 11 12 13 14 15 16
000
FTUS43 KGRB 292300
TAFATW
TAF
KATW 292325Z 3000/3024 02010KT P6SM SCT010 OVC020
      TEMPO 3000/3004 -SHRA BKN010
     FM300400 01010G17KT P6SM OVC010
     FM301500 02008KT P6SM BKN022
     FM302000 04007KT P6SM SCT025=

USA.gov is the U.S. government's official web portal to all federal, state and local government web resources and services.